sensor_id;sensor_type;location;lat;lon;timestamp;pressure;altitude;pressure_sealevel;temperature;humidity
36192;BME280;22233;42.708;23.360;2022-09-29T00:01:25;94548.41;;;18.40;64.60
36192;BME280;22233;42.708;23.360;2022-09-29T00:03:50;94542.19;;;17.87;67.70
36192;BME280;22233;42.708;23.360;2022-09-29T00:06:16;94536.06;;;18.12;66.40
36192;BME280;22233;42.708;23.360;2022-09-29T00:08:43;94549.50;;;18.24;65.52
36192;BME280;22233;42.708;23.360;2022-09-29T00:11:11;94539.63;;;18.16;65.88
36192;BME280;22233;42.708;23.360;2022-09-29T00:13:36;94546.78;;;18.28;65.37
36192;BME280;22233;42.708;23.360;2022-09-29T00:16:03;94536.94;;;18.27;65.48
36192;BME280;22233;42.708;23.360;2022-09-29T00:18:29;94542.47;;;18.30;65.77
36192;BME280;22233;42.708;23.360;2022-09-29T00:23:23;94556.56;;;18.22;66.16
36192;BME280;22233;42.708;23.360;2022-09-29T00:26:02;94545.94;;;18.20;66.02
36192;BME280;22233;42.708;23.360;2022-09-29T00:28:28;94541.22;;;18.21;65.54
36192;BME280;22233;42.708;23.360;2022-09-29T00:30:53;94561.72;;;18.30;65.85
36192;BME280;22233;42.708;23.360;2022-09-29T00:33:19;94546.31;;;18.15;66.12
36192;BME280;22233;42.708;23.360;2022-09-29T00:35:44;94545.34;;;18.52;64.95
36192;BME280;22233;42.708;23.360;2022-09-29T00:38:09;94522.47;;;18.33;64.87
36192;BME280;22233;42.708;23.360;2022-09-29T00:40:35;94552.78;;;18.48;64.59
36192;BME280;22233;42.708;23.360;2022-09-29T00:43:00;94546.91;;;18.53;64.74
36192;BME280;22233;42.708;23.360;2022-09-29T00:45:26;94539.72;;;18.30;65.56
36192;BME280;22233;42.708;23.360;2022-09-29T00:48:05;94527.56;;;18.31;65.09
36192;BME280;22233;42.708;23.360;2022-09-29T00:50:43;94535.00;;;18.27;65.69
36192;BME280;22233;42.708;23.360;2022-09-29T00:53:09;94528.00;;;18.41;65.53
36192;BME280;22233;42.708;23.360;2022-09-29T00:55:42;94537.91;;;18.56;64.50
36192;BME280;22233;42.708;23.360;2022-09-29T00:58:20;94533.97;;;18.53;64.29
36192;BME280;22233;42.708;23.360;2022-09-29T01:00:48;94539.47;;;18.53;64.42
36192;BME280;22233;42.708;23.360;2022-09-29T01:03:16;94547.34;;;18.62;64.52
36192;BME280;22233;42.708;23.360;2022-09-29T01:06:09;94539.56;;;18.79;64.29
36192;BME280;22233;42.708;23.360;2022-09-29T01:08:41;94546.31;;;18.85;64.45
36192;BME280;22233;42.708;23.360;2022-09-29T01:11:10;94536.91;;;18.93;63.97
36192;BME280;22233;42.708;23.360;2022-09-29T01:13:37;94523.94;;;18.97;63.57
36192;BME280;22233;42.708;23.360;2022-09-29T01:16:03;94535.50;;;18.47;65.58
36192;BME280;22233;42.708;23.360;2022-09-29T01:18:29;94527.50;;;18.24;66.00
36192;BME280;22233;42.708;23.360;2022-09-29T01:32:42;94541.25;;;18.24;65.85
36192;BME280;22233;42.708;23.360;2022-09-29T01:35:11;94556.69;;;18.43;66.02
36192;BME280;22233;42.708;23.360;2022-09-29T01:37:56;94545.28;;;18.45;65.79
36192;BME280;22233;42.708;23.360;2022-09-29T01:41:17;94551.66;;;18.56;65.49
36192;BME280;22233;42.708;23.360;2022-09-29T01:46:03;94553.03;;;18.25;65.37
36192;BME280;22233;42.708;23.360;2022-09-29T01:48:38;94561.25;;;18.17;66.32
36192;BME280;22233;42.708;23.360;2022-09-29T01:51:11;94538.63;;;17.83;67.00
36192;BME280;22233;42.708;23.360;2022-09-29T01:53:45;94572.25;;;18.17;67.16
36192;BME280;22233;42.708;23.360;2022-09-29T01:56:17;94566.31;;;18.12;67.42
36192;BME280;22233;42.708;23.360;2022-09-29T01:58:51;94569.06;;;18.12;66.52
36192;BME280;22233;42.708;23.360;2022-09-29T02:01:20;94563.97;;;18.14;65.93
36192;BME280;22233;42.708;23.360;2022-09-29T02:03:51;94569.50;;;18.17;66.32
36192;BME280;22233;42.708;23.360;2022-09-29T02:06:23;94566.38;;;18.19;66.68
36192;BME280;22233;42.708;23.360;2022-09-29T02:08:55;94566.47;;;18.41;67.08
36192;BME280;22233;42.708;23.360;2022-09-29T02:11:21;94571.16;;;18.33;66.74
36192;BME280;22233;42.708;23.360;2022-09-29T02:13:58;94562.81;;;18.15;67.38
36192;BME280;22233;42.708;23.360;2022-09-29T02:16:29;94559.97;;;18.04;67.42
36192;BME280;22233;42.708;23.360;2022-09-29T02:19:00;94565.59;;;18.22;67.48
36192;BME280;22233;42.708;23.360;2022-09-29T02:21:27;94563.72;;;18.33;67.10
36192;BME280;22233;42.708;23.360;2022-09-29T02:23:53;94577.84;;;18.35;67.10
36192;BME280;22233;42.708;23.360;2022-09-29T02:26:19;94571.50;;;18.24;67.75
36192;BME280;22233;42.708;23.360;2022-09-29T02:28:45;94563.44;;;17.98;67.91
36192;BME280;22233;42.708;23.360;2022-09-29T02:31:10;94576.38;;;17.93;66.84
36192;BME280;22233;42.708;23.360;2022-09-29T02:33:36;94573.75;;;17.63;66.30
36192;BME280;22233;42.708;23.360;2022-09-29T02:36:21;94571.19;;;17.44;65.84
36192;BME280;22233;42.708;23.360;2022-09-29T02:38:56;94577.59;;;17.55;65.66
36192;BME280;22233;42.708;23.360;2022-09-29T02:44:12;94570.38;;;17.40;67.01
36192;BME280;22233;42.708;23.360;2022-09-29T02:49:32;94585.00;;;17.13;67.65
36192;BME280;22233;42.708;23.360;2022-09-29T02:55:14;94571.16;;;17.40;66.68
36192;BME280;22233;42.708;23.360;2022-09-29T03:00:15;94565.66;;;17.36;66.50
36192;BME280;22233;42.708;23.360;2022-09-29T03:02:42;94552.75;;;17.41;66.39
36192;BME280;22233;42.708;23.360;2022-09-29T03:05:10;94548.25;;;16.88;67.62
36192;BME280;22233;42.708;23.360;2022-09-29T03:07:37;94508.53;;;16.78;67.58
36192;BME280;22233;42.708;23.360;2022-09-29T03:10:03;94519.78;;;16.69;68.31
36192;BME280;22233;42.708;23.360;2022-09-29T03:12:28;94520.69;;;16.16;70.08
36192;BME280;22233;42.708;23.360;2022-09-29T03:14:54;94521.31;;;16.33;68.54
36192;BME280;22233;42.708;23.360;2022-09-29T03:17:19;94515.63;;;16.18;69.55
36192;BME280;22233;42.708;23.360;2022-09-29T03:19:44;94532.59;;;16.01;70.65
36192;BME280;22233;42.708;23.360;2022-09-29T03:22:10;94535.41;;;16.05;70.64
36192;BME280;22233;42.708;23.360;2022-09-29T03:24:35;94557.03;;;16.40;69.45
36192;BME280;22233;42.708;23.360;2022-09-29T03:27:01;94546.41;;;16.08;70.22
36192;BME280;22233;42.708;23.360;2022-09-29T03:29:26;94582.13;;;16.42;69.85
36192;BME280;22233;42.708;23.360;2022-09-29T03:31:52;94577.91;;;16.48;69.37
36192;BME280;22233;42.708;23.360;2022-09-29T03:34:17;94589.97;;;15.90;70.24
36192;BME280;22233;42.708;23.360;2022-09-29T03:36:43;94598.94;;;16.14;69.72
36192;BME280;22233;42.708;23.360;2022-09-29T03:39:08;94574.38;;;16.21;69.72
36192;BME280;22233;42.708;23.360;2022-09-29T03:41:33;94585.44;;;16.28;69.90
36192;BME280;22233;42.708;23.360;2022-09-29T03:43:59;94618.38;;;15.82;71.11
36192;BME280;22233;42.708;23.360;2022-09-29T03:46:24;94623.75;;;15.13;73.39
36192;BME280;22233;42.708;23.360;2022-09-29T03:48:50;94620.31;;;15.39;72.08
36192;BME280;22233;42.708;23.360;2022-09-29T03:51:15;94610.31;;;15.47;72.05
36192;BME280;22233;42.708;23.360;2022-09-29T03:53:41;94578.25;;;15.47;71.22
36192;BME280;22233;42.708;23.360;2022-09-29T03:56:06;94589.16;;;15.67;70.46
36192;BME280;22233;42.708;23.360;2022-09-29T03:58:32;94587.56;;;15.66;70.65
36192;BME280;22233;42.708;23.360;2022-09-29T04:00:57;94579.78;;;15.68;70.13
36192;BME280;22233;42.708;23.360;2022-09-29T04:03:22;94601.31;;;15.69;70.32
36192;BME280;22233;42.708;23.360;2022-09-29T04:05:48;94586.41;;;15.67;70.40
36192;BME280;22233;42.708;23.360;2022-09-29T04:08:14;94568.19;;;15.74;70.06
36192;BME280;22233;42.708;23.360;2022-09-29T04:10:40;94584.34;;;15.83;69.99
36192;BME280;22233;42.708;23.360;2022-09-29T04:13:06;94589.53;;;15.88;69.54
36192;BME280;22233;42.708;23.360;2022-09-29T04:15:32;94570.66;;;15.83;69.42
36192;BME280;22233;42.708;23.360;2022-09-29T04:17:58;94573.31;;;16.03;68.79
36192;BME280;22233;42.708;23.360;2022-09-29T04:20:24;94583.13;;;16.04;68.76
36192;BME280;22233;42.708;23.360;2022-09-29T04:22:49;94579.34;;;16.12;68.91
36192;BME280;22233;42.708;23.360;2022-09-29T04:25:15;94572.81;;;16.20;68.88
36192;BME280;22233;42.708;23.360;2022-09-29T04:27:40;94569.25;;;16.20;68.75
36192;BME280;22233;42.708;23.360;2022-09-29T04:30:06;94566.50;;;16.16;68.79
36192;BME280;22233;42.708;23.360;2022-09-29T04:32:32;94574.56;;;15.36;71.16
36192;BME280;22233;42.708;23.360;2022-09-29T04:34:57;94566.69;;;15.34;71.50
36192;BME280;22233;42.708;23.360;2022-09-29T04:37:23;94566.22;;;15.75;70.00
36192;BME280;22233;42.708;23.360;2022-09-29T04:39:48;94561.00;;;15.66;74.21
36192;BME280;22233;42.708;23.360;2022-09-29T04:42:16;94559.25;;;16.04;71.92
36192;BME280;22233;42.708;23.360;2022-09-29T04:44:42;94576.59;;;16.12;71.45
36192;BME280;22233;42.708;23.360;2022-09-29T04:47:07;94586.81;;;15.88;69.61
36192;BME280;22233;42.708;23.360;2022-09-29T04:49:33;94571.47;;;15.84;70.03
36192;BME280;22233;42.708;23.360;2022-09-29T04:51:58;94555.09;;;15.87;69.78
36192;BME280;22233;42.708;23.360;2022-09-29T04:54:23;94565.72;;;15.69;70.15
36192;BME280;22233;42.708;23.360;2022-09-29T04:56:49;94573.16;;;15.69;69.93
36192;BME280;22233;42.708;23.360;2022-09-29T04:59:15;94573.22;;;15.49;70.83
36192;BME280;22233;42.708;23.360;2022-09-29T05:01:44;94557.31;;;15.78;69.78
36192;BME280;22233;42.708;23.360;2022-09-29T05:04:10;94571.03;;;15.58;70.41
36192;BME280;22233;42.708;23.360;2022-09-29T05:06:37;94575.97;;;15.49;70.79
36192;BME280;22233;42.708;23.360;2022-09-29T05:09:04;94564.41;;;15.60;70.51
36192;BME280;22233;42.708;23.360;2022-09-29T05:11:30;94556.63;;;15.85;69.83
36192;BME280;22233;42.708;23.360;2022-09-29T05:13:55;94571.84;;;16.09;69.54
36192;BME280;22233;42.708;23.360;2022-09-29T05:16:21;94550.69;;;16.06;69.70
36192;BME280;22233;42.708;23.360;2022-09-29T05:18:47;94566.28;;;16.28;68.66
36192;BME280;22233;42.708;23.360;2022-09-29T05:21:12;94579.16;;;16.28;68.64
36192;BME280;22233;42.708;23.360;2022-09-29T05:23:38;94581.16;;;16.31;68.61
36192;BME280;22233;42.708;23.360;2022-09-29T05:26:05;94583.56;;;16.63;67.20
36192;BME280;22233;42.708;23.360;2022-09-29T05:28:33;94584.94;;;16.80;67.20
36192;BME280;22233;42.708;23.360;2022-09-29T05:31:03;94595.13;;;16.49;67.51
36192;BME280;22233;42.708;23.360;2022-09-29T05:33:29;94583.22;;;16.37;68.92
36192;BME280;22233;42.708;23.360;2022-09-29T05:35:55;94579.75;;;16.71;67.44
36192;BME280;22233;42.708;23.360;2022-09-29T05:38:21;94573.50;;;16.70;67.54
36192;BME280;22233;42.708;23.360;2022-09-29T05:40:47;94580.91;;;17.00;66.58
36192;BME280;22233;42.708;23.360;2022-09-29T05:43:13;94571.06;;;16.95;66.28
36192;BME280;22233;42.708;23.360;2022-09-29T05:45:38;94587.00;;;17.20;66.14
36192;BME280;22233;42.708;23.360;2022-09-29T05:48:04;94596.34;;;17.12;66.27
36192;BME280;22233;42.708;23.360;2022-09-29T05:50:29;94578.09;;;16.63;67.93
36192;BME280;22233;42.708;23.360;2022-09-29T05:53:01;94590.84;;;17.12;66.28
36192;BME280;22233;42.708;23.360;2022-09-29T05:55:26;94593.41;;;17.31;66.51
36192;BME280;22233;42.708;23.360;2022-09-29T05:57:51;94588.66;;;17.25;65.99
36192;BME280;22233;42.708;23.360;2022-09-29T06:00:17;94606.22;;;17.16;67.00
36192;BME280;22233;42.708;23.360;2022-09-29T06:02:42;94594.34;;;17.43;66.36
36192;BME280;22233;42.708;23.360;2022-09-29T06:05:08;94589.25;;;17.45;66.33
36192;BME280;22233;42.708;23.360;2022-09-29T06:07:33;94606.00;;;17.36;66.91
36192;BME280;22233;42.708;23.360;2022-09-29T06:09:58;94607.94;;;17.69;65.78
36192;BME280;22233;42.708;23.360;2022-09-29T06:12:24;94612.13;;;17.97;65.13
36192;BME280;22233;42.708;23.360;2022-09-29T06:14:49;94609.91;;;18.13;64.74
36192;BME280;22233;42.708;23.360;2022-09-29T06:17:15;94621.03;;;18.31;64.80
36192;BME280;22233;42.708;23.360;2022-09-29T06:19:40;94615.53;;;18.31;64.22
36192;BME280;22233;42.708;23.360;2022-09-29T06:22:06;94618.75;;;18.44;64.28
36192;BME280;22233;42.708;23.360;2022-09-29T06:24:31;94614.25;;;18.18;65.65
36192;BME280;22233;42.708;23.360;2022-09-29T06:26:56;94611.56;;;18.25;64.89
36192;BME280;22233;42.708;23.360;2022-09-29T06:29:22;94605.06;;;18.51;64.58
36192;BME280;22233;42.708;23.360;2022-09-29T06:31:47;94618.81;;;18.55;63.86
36192;BME280;22233;42.708;23.360;2022-09-29T06:34:13;94624.00;;;18.64;64.36
36192;BME280;22233;42.708;23.360;2022-09-29T06:36:42;94629.91;;;18.66;64.23
36192;BME280;22233;42.708;23.360;2022-09-29T06:39:27;94627.72;;;18.96;63.46
36192;BME280;22233;42.708;23.360;2022-09-29T06:41:53;94602.91;;;18.82;64.57
36192;BME280;22233;42.708;23.360;2022-09-29T06:44:22;94621.53;;;19.18;62.92
36192;BME280;22233;42.708;23.360;2022-09-29T06:46:51;94631.00;;;19.31;62.56
36192;BME280;22233;42.708;23.360;2022-09-29T06:49:17;94627.94;;;19.50;63.28
36192;BME280;22233;42.708;23.360;2022-09-29T06:51:43;94627.09;;;19.39;63.35
36192;BME280;22233;42.708;23.360;2022-09-29T06:54:10;94623.59;;;19.49;62.53
36192;BME280;22233;42.708;23.360;2022-09-29T06:56:36;94628.72;;;19.62;62.35
36192;BME280;22233;42.708;23.360;2022-09-29T06:59:02;94624.84;;;19.70;61.96
36192;BME280;22233;42.708;23.360;2022-09-29T07:01:27;94635.50;;;19.79;61.26
36192;BME280;22233;42.708;23.360;2022-09-29T07:03:52;94627.66;;;19.84;60.28
36192;BME280;22233;42.708;23.360;2022-09-29T07:06:18;94637.09;;;19.90;60.40
36192;BME280;22233;42.708;23.360;2022-09-29T07:08:43;94650.88;;;19.90;60.76
36192;BME280;22233;42.708;23.360;2022-09-29T07:11:09;94655.94;;;19.70;60.65
36192;BME280;22233;42.708;23.360;2022-09-29T07:13:35;94655.19;;;19.91;60.57
36192;BME280;22233;42.708;23.360;2022-09-29T07:16:08;94651.28;;;20.18;60.20
36192;BME280;22233;42.708;23.360;2022-09-29T07:18:39;94646.97;;;20.13;60.24
36192;BME280;22233;42.708;23.360;2022-09-29T07:21:06;94645.78;;;20.43;59.86
36192;BME280;22233;42.708;23.360;2022-09-29T07:23:34;94623.72;;;20.07;60.29
36192;BME280;22233;42.708;23.360;2022-09-29T07:26:00;94635.56;;;20.14;60.79
36192;BME280;22233;42.708;23.360;2022-09-29T07:28:27;94641.84;;;20.29;60.79
36192;BME280;22233;42.708;23.360;2022-09-29T07:33:25;94600.50;;;20.22;60.08
36192;BME280;22233;42.708;23.360;2022-09-29T07:35:53;94627.25;;;20.50;59.65
36192;BME280;22233;42.708;23.360;2022-09-29T07:38:19;94627.28;;;20.61;58.55
36192;BME280;22233;42.708;23.360;2022-09-29T07:40:44;94632.38;;;20.66;58.94
36192;BME280;22233;42.708;23.360;2022-09-29T07:43:10;94646.19;;;20.63;59.07
36192;BME280;22233;42.708;23.360;2022-09-29T07:45:36;94639.03;;;20.94;57.88
36192;BME280;22233;42.708;23.360;2022-09-29T07:48:02;94637.06;;;20.87;58.21
36192;BME280;22233;42.708;23.360;2022-09-29T07:50:27;94636.25;;;20.90;58.18
36192;BME280;22233;42.708;23.360;2022-09-29T07:52:52;94645.69;;;21.11;57.38
36192;BME280;22233;42.708;23.360;2022-09-29T07:55:18;94645.19;;;21.41;56.96
36192;BME280;22233;42.708;23.360;2022-09-29T07:58:04;94658.19;;;21.55;55.84
36192;BME280;22233;42.708;23.360;2022-09-29T08:00:30;94658.56;;;21.53;56.34
36192;BME280;22233;42.708;23.360;2022-09-29T08:03:04;94650.91;;;21.79;56.46
36192;BME280;22233;42.708;23.360;2022-09-29T08:05:32;94653.25;;;21.88;56.46
36192;BME280;22233;42.708;23.360;2022-09-29T08:07:59;94648.13;;;21.86;56.23
36192;BME280;22233;42.708;23.360;2022-09-29T08:10:25;94664.09;;;21.53;56.45
36192;BME280;22233;42.708;23.360;2022-09-29T08:12:52;94667.50;;;21.79;55.63
36192;BME280;22233;42.708;23.360;2022-09-29T08:15:18;94658.03;;;21.77;54.81
36192;BME280;22233;42.708;23.360;2022-09-29T08:17:43;94676.53;;;21.90;54.53
36192;BME280;22233;42.708;23.360;2022-09-29T08:20:08;94679.44;;;21.62;55.71
36192;BME280;22233;42.708;23.360;2022-09-29T08:22:34;94674.50;;;22.02;55.54
36192;BME280;22233;42.708;23.360;2022-09-29T08:24:59;94671.53;;;22.34;54.29
36192;BME280;22233;42.708;23.360;2022-09-29T08:27:25;94673.69;;;22.01;54.24
36192;BME280;22233;42.708;23.360;2022-09-29T08:29:50;94667.75;;;22.03;54.25
36192;BME280;22233;42.708;23.360;2022-09-29T08:32:16;94666.81;;;22.31;53.01
36192;BME280;22233;42.708;23.360;2022-09-29T08:34:41;94661.25;;;22.34;52.33
36192;BME280;22233;42.708;23.360;2022-09-29T08:37:07;94663.88;;;22.52;51.57
36192;BME280;22233;42.708;23.360;2022-09-29T08:39:33;94686.00;;;22.56;51.83
36192;BME280;22233;42.708;23.360;2022-09-29T08:44:40;94673.97;;;22.73;51.10
36192;BME280;22233;42.708;23.360;2022-09-29T08:47:26;94662.25;;;23.00;51.02
36192;BME280;22233;42.708;23.360;2022-09-29T08:50:02;94674.91;;;23.39;50.16
36192;BME280;22233;42.708;23.360;2022-09-29T08:52:31;94669.44;;;23.66;50.30
36192;BME280;22233;42.708;23.360;2022-09-29T08:57:43;94658.03;;;23.91;49.08
36192;BME280;22233;42.708;23.360;2022-09-29T09:00:11;94677.75;;;24.24;46.47
36192;BME280;22233;42.708;23.360;2022-09-29T09:10:30;94675.06;;;24.71;44.80
36192;BME280;22233;42.708;23.360;2022-09-29T09:17:02;94661.91;;;25.19;45.30
36192;BME280;22233;42.708;23.360;2022-09-29T09:24:58;94653.75;;;25.72;44.35
36192;BME280;22233;42.708;23.360;2022-09-29T09:27:26;94661.63;;;25.94;42.41
36192;BME280;22233;42.708;23.360;2022-09-29T09:30:11;94651.31;;;25.74;42.71
36192;BME280;22233;42.708;23.360;2022-09-29T09:32:46;94662.34;;;25.98;41.88
36192;BME280;22233;42.708;23.360;2022-09-29T09:35:51;94668.78;;;25.95;42.41
36192;BME280;22233;42.708;23.360;2022-09-29T09:38:23;94661.50;;;25.81;41.71
36192;BME280;22233;42.708;23.360;2022-09-29T09:40:53;94645.75;;;25.94;41.69
36192;BME280;22233;42.708;23.360;2022-09-29T09:43:30;94656.38;;;25.59;41.56
36192;BME280;22233;42.708;23.360;2022-09-29T09:46:18;94655.88;;;25.84;41.62
36192;BME280;22233;42.708;23.360;2022-09-29T09:53:51;94668.34;;;25.76;42.38
36192;BME280;22233;42.708;23.360;2022-09-29T09:57:07;94667.56;;;25.96;42.04
36192;BME280;22233;42.708;23.360;2022-09-29T10:00:20;94659.06;;;25.83;41.32
36192;BME280;22233;42.708;23.360;2022-09-29T10:02:28;94652.75;;;25.62;42.59
36192;BME280;22233;42.708;23.360;2022-09-29T10:04:54;94665.22;;;25.74;41.67
36192;BME280;22233;42.708;23.360;2022-09-29T10:07:22;94662.38;;;25.58;40.45
36192;BME280;22233;42.708;23.360;2022-09-29T10:09:48;94667.59;;;25.56;40.48
36192;BME280;22233;42.708;23.360;2022-09-29T10:12:19;94665.44;;;25.63;41.21
36192;BME280;22233;42.708;23.360;2022-09-29T10:15:04;94660.13;;;25.89;41.08
36192;BME280;22233;42.708;23.360;2022-09-29T10:17:40;94661.25;;;26.11;40.92
36192;BME280;22233;42.708;23.360;2022-09-29T10:20:08;94662.41;;;26.30;39.92
36192;BME280;22233;42.708;23.360;2022-09-29T10:22:34;94654.94;;;26.44;40.17
36192;BME280;22233;42.708;23.360;2022-09-29T10:25:15;94635.53;;;26.40;40.58
36192;BME280;22233;42.708;23.360;2022-09-29T10:27:49;94649.88;;;26.22;40.02
36192;BME280;22233;42.708;23.360;2022-09-29T10:30:19;94634.03;;;26.19;39.59
36192;BME280;22233;42.708;23.360;2022-09-29T10:32:45;94642.16;;;26.30;38.74
36192;BME280;22233;42.708;23.360;2022-09-29T10:35:18;94655.78;;;26.08;39.76
36192;BME280;22233;42.708;23.360;2022-09-29T10:37:49;94641.94;;;26.04;39.88
36192;BME280;22233;42.708;23.360;2022-09-29T10:40:18;94647.88;;;26.23;40.28
36192;BME280;22233;42.708;23.360;2022-09-29T10:42:49;94652.94;;;26.44;39.53
36192;BME280;22233;42.708;23.360;2022-09-29T10:45:28;94647.81;;;26.43;40.16
36192;BME280;22233;42.708;23.360;2022-09-29T10:50:34;94652.59;;;26.92;37.90
36192;BME280;22233;42.708;23.360;2022-09-29T10:53:03;94644.47;;;26.97;37.36
36192;BME280;22233;42.708;23.360;2022-09-29T10:55:34;94635.19;;;26.87;37.80
36192;BME280;22233;42.708;23.360;2022-09-29T10:58:15;94645.50;;;27.03;37.79
36192;BME280;22233;42.708;23.360;2022-09-29T11:00:44;94630.75;;;27.19;36.60
36192;BME280;22233;42.708;23.360;2022-09-29T11:03:27;94644.41;;;27.30;37.08
36192;BME280;22233;42.708;23.360;2022-09-29T11:06:00;94649.22;;;27.29;37.56
36192;BME280;22233;42.708;23.360;2022-09-29T11:08:26;94630.28;;;27.37;36.11
36192;BME280;22233;42.708;23.360;2022-09-29T11:11:22;94638.59;;;27.66;34.46
36192;BME280;22233;42.708;23.360;2022-09-29T11:13:50;94637.34;;;27.55;35.06
36192;BME280;22233;42.708;23.360;2022-09-29T11:16:33;94636.47;;;27.58;34.67
36192;BME280;22233;42.708;23.360;2022-09-29T11:19:07;94636.13;;;27.56;34.99
36192;BME280;22233;42.708;23.360;2022-09-29T11:26:56;94625.16;;;27.91;34.81
36192;BME280;22233;42.708;23.360;2022-09-29T11:35:12;94626.34;;;27.77;35.81
36192;BME280;22233;42.708;23.360;2022-09-29T11:43:19;94617.59;;;28.55;35.00
36192;BME280;22233;42.708;23.360;2022-09-29T11:51:49;94646.34;;;27.33;34.95
36192;BME280;22233;42.708;23.360;2022-09-29T11:54:41;94630.41;;;26.55;37.13
36192;BME280;22233;42.708;23.360;2022-09-29T11:57:38;94624.63;;;26.13;36.82
36192;BME280;22233;42.708;23.360;2022-09-29T12:08:31;94623.19;;;25.52;38.22
36192;BME280;22233;42.708;23.360;2022-09-29T12:13:49;94608.28;;;25.42;38.77
36192;BME280;22233;42.708;23.360;2022-09-29T12:16:19;94616.25;;;25.40;38.84
36192;BME280;22233;42.708;23.360;2022-09-29T12:18:53;94618.25;;;25.60;38.75
36192;BME280;22233;42.708;23.360;2022-09-29T12:21:30;94612.91;;;25.49;39.15
36192;BME280;22233;42.708;23.360;2022-09-29T12:23:57;94613.53;;;25.57;38.86
36192;BME280;22233;42.708;23.360;2022-09-29T12:26:25;94599.31;;;25.71;38.58
36192;BME280;22233;42.708;23.360;2022-09-29T12:29:05;94612.91;;;25.85;38.34
36192;BME280;22233;42.708;23.360;2022-09-29T12:31:43;94619.72;;;25.64;39.56
36192;BME280;22233;42.708;23.360;2022-09-29T12:42:45;94603.06;;;26.34;38.19
36192;BME280;22233;42.708;23.360;2022-09-29T12:45:22;94616.28;;;26.46;37.42
36192;BME280;22233;42.708;23.360;2022-09-29T12:48:04;94612.19;;;26.18;37.16
36192;BME280;22233;42.708;23.360;2022-09-29T12:50:38;94605.06;;;26.00;37.44
36192;BME280;22233;42.708;23.360;2022-09-29T12:56:02;94614.25;;;25.97;38.20
36192;BME280;22233;42.708;23.360;2022-09-29T12:58:51;94611.22;;;25.91;37.12
36192;BME280;22233;42.708;23.360;2022-09-29T13:01:29;94600.97;;;25.68;37.37
36192;BME280;22233;42.708;23.360;2022-09-29T13:20:35;94617.31;;;25.66;38.70
36192;BME280;22233;42.708;23.360;2022-09-29T13:26:18;94600.56;;;25.70;38.02
36192;BME280;22233;42.708;23.360;2022-09-29T13:28:52;94607.78;;;25.84;38.30
36192;BME280;22233;42.708;23.360;2022-09-29T13:31:25;94613.56;;;25.93;38.93
36192;BME280;22233;42.708;23.360;2022-09-29T13:33:55;94596.56;;;25.87;39.00
36192;BME280;22233;42.708;23.360;2022-09-29T13:38:53;94625.63;;;25.86;39.00
36192;BME280;22233;42.708;23.360;2022-09-29T13:46:40;94628.81;;;25.85;39.63
36192;BME280;22233;42.708;23.360;2022-09-29T13:57:03;94635.84;;;25.53;40.65
36192;BME280;22233;42.708;23.360;2022-09-29T13:59:30;94623.09;;;25.16;41.48
36192;BME280;22233;42.708;23.360;2022-09-29T14:01:56;94643.00;;;25.10;41.23
36192;BME280;22233;42.708;23.360;2022-09-29T14:07:11;94646.16;;;24.69;41.87
36192;BME280;22233;42.708;23.360;2022-09-29T14:09:39;94640.59;;;24.69;41.71
36192;BME280;22233;42.708;23.360;2022-09-29T14:12:16;94631.84;;;24.70;41.68
36192;BME280;22233;42.708;23.360;2022-09-29T14:14:43;94641.56;;;24.59;41.45
36192;BME280;22233;42.708;23.360;2022-09-29T14:17:20;94633.06;;;24.42;41.97
36192;BME280;22233;42.708;23.360;2022-09-29T14:19:58;94635.03;;;24.45;41.89
36192;BME280;22233;42.708;23.360;2022-09-29T14:35:19;94678.97;;;24.23;46.32
36192;BME280;22233;42.708;23.360;2022-09-29T14:37:56;94679.28;;;24.02;46.40
36192;BME280;22233;42.708;23.360;2022-09-29T14:40:22;94699.13;;;24.27;45.95
36192;BME280;22233;42.708;23.360;2022-09-29T14:43:15;94710.84;;;24.39;45.87
36192;BME280;22233;42.708;23.360;2022-09-29T14:49:02;94733.47;;;24.10;47.80
36192;BME280;22233;42.708;23.360;2022-09-29T14:52:03;94737.53;;;23.33;52.15
36192;BME280;22233;42.708;23.360;2022-09-29T14:54:40;94750.41;;;23.09;55.85
36192;BME280;22233;42.708;23.360;2022-09-29T15:02:28;94754.16;;;22.21;62.25
36192;BME280;22233;42.708;23.360;2022-09-29T15:04:55;94743.56;;;22.12;63.41
36192;BME280;22233;42.708;23.360;2022-09-29T15:07:26;94730.09;;;22.22;63.58
36192;BME280;22233;42.708;23.360;2022-09-29T15:09:54;94746.22;;;22.38;64.59
36192;BME280;22233;42.708;23.360;2022-09-29T15:12:26;94740.25;;;22.39;64.90
36192;BME280;22233;42.708;23.360;2022-09-29T15:14:55;94731.97;;;22.39;65.45
36192;BME280;22233;42.708;23.360;2022-09-29T15:20:31;94743.09;;;22.32;66.78
36192;BME280;22233;42.708;23.360;2022-09-29T15:25:33;94744.28;;;22.27;66.29
36192;BME280;22233;42.708;23.360;2022-09-29T15:28:03;94739.94;;;22.30;67.96
36192;BME280;22233;42.708;23.360;2022-09-29T15:30:30;94745.16;;;22.10;67.60
36192;BME280;22233;42.708;23.360;2022-09-29T15:35:41;94724.28;;;22.02;68.36
36192;BME280;22233;42.708;23.360;2022-09-29T15:40:35;94749.59;;;21.93;67.12
36192;BME280;22233;42.708;23.360;2022-09-29T15:43:01;94752.78;;;21.91;66.12
36192;BME280;22233;42.708;23.360;2022-09-29T15:45:28;94746.50;;;21.80;68.33
36192;BME280;22233;42.708;23.360;2022-09-29T15:48:00;94760.69;;;21.82;67.24
36192;BME280;22233;42.708;23.360;2022-09-29T15:50:28;94767.00;;;21.83;67.93
36192;BME280;22233;42.708;23.360;2022-09-29T15:52:57;94758.75;;;21.72;68.15
36192;BME280;22233;42.708;23.360;2022-09-29T15:55:25;94758.91;;;20.97;70.98
36192;BME280;22233;42.708;23.360;2022-09-29T15:57:51;94753.00;;;20.62;72.51
36192;BME280;22233;42.708;23.360;2022-09-29T16:05:20;94763.22;;;21.19;68.81